Time;durP1;ratioP1;P1;durP2;ratioP2;P2;SDS_P1;SDS_P2;PMS_P1;PMS_P2;Temp;Humidity;BMP_temperature;BMP_pressure;BME280_temperature;BME280_humidity;BME280_pressure;Samples;Min_cycle;Max_cycle;Signal;HPM_P1;HPM_P2
2022/03/10 00:01:04;;;;;;;14.10;7.73;;;1.80;99.90;;;;;;4882214;29;20861;-80
2022/03/10 00:03:48;;;;;;;14.73;10.57;;;1.90;99.90;;;;;;4894260;29;20431;-80
2022/03/10 00:06:33;;;;;;;11.10;9.10;;;1.90;99.90;;;;;;4881759;29;20458;-80
2022/03/10 00:09:18;;;;;;;11.97;7.00;;;1.90;99.90;;;;;;4881952;29;20391;-80
2022/03/10 00:12:03;;;;;;;8.43;7.63;;;1.90;99.90;;;;;;4881143;29;20403;-80
2022/03/10 00:14:49;;;;;;;11.67;8.13;;;1.90;99.90;;;;;;4886855;29;20399;-79
2022/03/10 00:17:33;;;;;;;12.00;9.10;;;1.90;99.90;;;;;;4886998;29;20394;-80
2022/03/10 00:20:20;;;;;;;23.50;9.03;;;1.90;99.90;;;;;;4887352;29;20423;-79
2022/03/10 00:23:05;;;;;;;10.77;7.70;;;1.90;99.90;;;;;;4887605;29;20429;-79
2022/03/10 00:25:51;;;;;;;12.67;7.20;;;1.90;99.90;;;;;;4887294;29;20497;-79
2022/03/10 00:28:36;;;;;;;7.70;6.13;;;1.80;99.90;;;;;;4887400;29;20440;-79
2022/03/10 00:31:21;;;;;;;9.40;7.83;;;1.70;99.90;;;;;;4899832;29;20399;-79
2022/03/10 00:34:06;;;;;;;17.13;7.00;;;1.70;99.90;;;;;;4887244;29;20395;-79
2022/03/10 00:36:50;;;;;;;7.57;6.60;;;1.60;99.90;;;;;;4880257;29;20421;-80
2022/03/10 00:39:35;;;;;;;7.20;5.33;;;1.60;99.90;;;;;;4880776;29;20447;-80
2022/03/10 00:42:20;;;;;;;12.13;7.07;;;1.50;99.90;;;;;;4880978;29;20403;-80
2022/03/10 00:45:06;;;;;;;13.17;6.60;;;1.60;99.90;;;;;;4893253;29;20488;-79
2022/03/10 00:47:51;;;;;;;10.53;6.30;;;1.40;99.90;;;;;;4879476;29;20394;-80
2022/03/10 00:50:35;;;;;;;12.57;6.27;;;1.40;99.90;;;;;;4878918;29;20394;-79
2022/03/10 00:53:20;;;;;;;9.57;6.03;;;1.30;99.90;;;;;;4878897;29;20386;-79
2022/03/10 00:56:05;;;;;;;7.90;5.50;;;0.90;99.90;;;;;;4877775;29;20430;-79
2022/03/10 00:58:50;;;;;;;26.03;6.93;;;0.80;99.90;;;;;;4877446;29;20466;-79
2022/03/10 01:01:35;;;;;;;12.53;6.33;;;0.70;99.90;;;;;;4876515;29;20423;-79
2022/03/10 01:04:19;;;;;;;11.27;5.90;;;0.90;99.90;;;;;;4878620;29;20387;-79
2022/03/10 01:07:04;;;;;;;9.10;7.00;;;0.70;99.90;;;;;;4878841;29;20464;-79
2022/03/10 01:09:49;;;;;;;7.83;6.07;;;0.50;99.90;;;;;;4877311;29;20395;-78
2022/03/10 01:12:34;;;;;;;9.77;6.03;;;0.80;99.90;;;;;;4876574;29;20503;-79
2022/03/10 01:15:23;;;;;;;12.77;6.17;;;0.50;99.90;;;;;;4887048;29;20451;-79
2022/03/10 01:18:08;;;;;;;7.03;5.60;;;0.60;99.90;;;;;;4876140;29;20412;-80
2022/03/10 01:20:53;;;;;;;32.67;10.00;;;0.50;99.90;;;;;;4878106;29;21034;-80
2022/03/10 01:23:38;;;;;;;9.63;6.70;;;0.40;99.90;;;;;;4890762;29;20383;-79
2022/03/10 01:26:22;;;;;;;26.80;11.57;;;0.40;99.90;;;;;;4876953;29;20454;-80
2022/03/10 01:29:07;;;;;;;13.17;8.63;;;0.70;99.90;;;;;;4877738;29;20395;-80
2022/03/10 01:31:52;;;;;;;11.00;7.23;;;0.80;99.90;;;;;;4876648;29;20407;-80
2022/03/10 01:34:36;;;;;;;12.70;8.93;;;0.80;99.90;;;;;;4878519;29;20482;-80
2022/03/10 01:37:21;;;;;;;12.00;7.97;;;0.80;99.90;;;;;;4890691;29;20735;-80
2022/03/10 01:40:08;;;;;;;7.43;6.50;;;0.70;99.90;;;;;;4890095;29;20387;-80
2022/03/10 01:42:54;;;;;;;12.10;5.80;;;0.50;99.90;;;;;;4878132;29;20408;-79
2022/03/10 01:45:39;;;;;;;6.93;6.17;;;0.60;99.90;;;;;;4876828;29;20442;-80
2022/03/10 01:48:23;;;;;;;15.23;7.80;;;0.60;99.90;;;;;;4878431;29;20399;-80
2022/03/10 01:51:08;;;;;;;10.30;7.00;;;0.70;99.90;;;;;;4877899;29;20881;-80
2022/03/10 01:53:53;;;;;;;6.10;5.50;;;0.70;99.90;;;;;;4875958;29;20435;-79
2022/03/10 01:56:39;;;;;;;8.90;7.60;;;0.70;99.90;;;;;;4888155;29;20510;-79
2022/03/10 01:59:23;;;;;;;13.43;7.10;;;0.60;99.90;;;;;;4875999;29;20462;-79
2022/03/10 02:02:09;;;;;;;6.47;5.87;;;0.70;99.90;;;;;;4874858;29;20407;-79
2022/03/10 02:04:54;;;;;;;9.70;7.70;;;0.70;99.90;;;;;;4875243;29;20459;-79
2022/03/10 02:10:45;;;;;;;12.57;8.53;;;0.80;99.90;;;;;;4876538;29;20455;-79
2022/03/10 02:13:30;;;;;;;14.47;10.03;;;1.10;99.90;;;;;;4878012;29;20405;-79
2022/03/10 02:19:11;;;;;;;15.67;8.77;;;1.10;99.90;;;;;;4882793;29;20390;-78
2022/03/10 02:21:57;;;;;;;13.47;7.20;;;1.00;99.90;;;;;;4882043;29;20475;-79
2022/03/10 02:24:43;;;;;;;15.43;7.97;;;1.00;99.90;;;;;;4879675;29;20475;-79
2022/03/10 02:27:27;;;;;;;9.10;7.87;;;1.10;99.90;;;;;;4880985;29;20415;-79
2022/03/10 02:30:12;;;;;;;10.83;8.63;;;1.00;99.90;;;;;;4878919;29;20427;-79
2022/03/10 02:32:58;;;;;;;9.03;6.83;;;0.90;99.90;;;;;;4879356;29;20400;-79
2022/03/10 02:35:42;;;;;;;19.93;9.93;;;0.90;99.90;;;;;;4877766;29;20365;-79
2022/03/10 02:38:27;;;;;;;10.83;8.00;;;0.90;99.90;;;;;;4875234;29;20390;-79
2022/03/10 02:41:11;;;;;;;8.63;7.67;;;1.00;99.90;;;;;;4875475;29;20484;-79
2022/03/10 02:43:56;;;;;;;18.43;8.83;;;0.90;99.90;;;;;;4875322;29;20391;-79
2022/03/10 02:46:40;;;;;;;23.97;10.67;;;1.00;99.90;;;;;;4875766;29;20447;-79
2022/03/10 02:49:25;;;;;;;17.63;10.20;;;1.20;99.90;;;;;;4887215;29;20514;-79
2022/03/10 02:52:10;;;;;;;10.87;8.83;;;1.70;99.90;;;;;;4873905;29;20403;-79
2022/03/10 02:54:55;;;;;;;13.67;9.63;;;2.10;99.90;;;;;;4873082;29;20477;-79
2022/03/10 02:57:39;;;;;;;11.50;9.37;;;2.40;99.90;;;;;;4872911;29;20388;-79
2022/03/10 03:00:25;;;;;;;16.40;8.90;;;2.50;99.90;;;;;;4885465;29;20982;-79
2022/03/10 03:03:09;;;;;;;16.37;9.87;;;2.60;99.90;;;;;;4873446;29;20459;-79
2022/03/10 03:05:54;;;;;;;21.13;12.13;;;2.70;99.90;;;;;;4873580;29;20475;-79
2022/03/10 03:08:38;;;;;;;13.67;9.90;;;2.80;99.90;;;;;;4875357;29;20415;-79
2022/03/10 03:11:23;;;;;;;14.20;9.33;;;2.80;99.90;;;;;;4886926;29;20447;-79
2022/03/10 03:14:08;;;;;;;10.50;7.33;;;2.80;99.90;;;;;;4876183;29;20452;-79
2022/03/10 03:16:57;;;;;;;9.33;8.00;;;2.80;99.90;;;;;;4873077;29;20402;-79
2022/03/10 03:19:42;;;;;;;10.17;6.90;;;2.70;99.90;;;;;;4873592;29;20424;-79
2022/03/10 03:22:26;;;;;;;13.80;8.83;;;2.70;99.90;;;;;;4872922;29;20406;-79
2022/03/10 03:25:14;;;;;;;15.77;9.07;;;2.70;99.90;;;;;;4885374;29;20476;-79
2022/03/10 03:27:58;;;;;;;15.17;9.37;;;2.80;99.90;;;;;;4873030;29;20800;-79
2022/03/10 03:30:43;;;;;;;15.07;8.83;;;2.70;99.90;;;;;;4873730;29;20395;-79
2022/03/10 03:33:27;;;;;;;12.57;9.40;;;2.80;99.90;;;;;;4873885;29;20711;-79
2022/03/10 03:36:12;;;;;;;12.57;7.97;;;2.70;99.90;;;;;;4885442;29;20402;-79
2022/03/10 03:38:57;;;;;;;18.00;9.57;;;2.60;99.90;;;;;;4874213;29;20399;-79
2022/03/10 03:41:42;;;;;;;11.43;9.77;;;2.70;99.90;;;;;;4873122;29;20499;-79
2022/03/10 03:44:26;;;;;;;15.67;9.10;;;2.70;99.90;;;;;;4872150;29;20491;-79
2022/03/10 03:47:11;;;;;;;12.47;7.37;;;2.60;99.90;;;;;;4868695;29;20399;-80
2022/03/10 03:49:56;;;;;;;12.60;9.63;;;2.60;99.90;;;;;;4868503;29;20471;-79
2022/03/10 03:52:40;;;;;;;12.07;9.10;;;2.60;99.90;;;;;;4874730;29;20391;-78
2022/03/10 03:55:25;;;;;;;10.83;7.63;;;2.50;99.90;;;;;;4859862;29;20530;-78
2022/03/10 03:58:11;;;;;;;9.43;6.07;;;2.60;99.90;;;;;;4864674;29;20394;-78
2022/03/10 04:00:56;;;;;;;10.97;9.00;;;2.50;99.90;;;;;;4865624;29;20478;-79
2022/03/10 04:03:40;;;;;;;10.07;8.10;;;2.50;99.90;;;;;;4866719;29;20890;-80
2022/03/10 04:06:26;;;;;;;18.20;8.23;;;2.50;99.90;;;;;;4875220;29;20510;-79
2022/03/10 04:09:10;;;;;;;9.60;8.33;;;2.60;99.90;;;;;;4875610;29;20406;-79
2022/03/10 04:11:55;;;;;;;15.93;9.23;;;2.70;99.90;;;;;;4875324;29;20403;-79
2022/03/10 04:14:39;;;;;;;9.83;7.57;;;2.70;99.90;;;;;;4874806;29;20486;-79
2022/03/10 04:17:23;;;;;;;11.17;8.10;;;2.70;99.90;;;;;;4875012;29;20412;-79
2022/03/10 04:20:12;;;;;;;12.90;8.37;;;2.70;99.90;;;;;;4875240;29;20444;-79
2022/03/10 04:22:58;;;;;;;14.93;9.50;;;2.70;99.90;;;;;;4876322;29;20403;-79
2022/03/10 04:25:43;;;;;;;9.73;8.33;;;2.70;99.90;;;;;;4876898;29;20447;-80
2022/03/10 04:28:30;;;;;;;11.20;10.10;;;2.60;99.90;;;;;;4877192;29;20391;-78
2022/03/10 04:31:15;;;;;;;8.27;7.27;;;2.40;99.90;;;;;;4889686;29;20395;-79
2022/03/10 04:34:00;;;;;;;11.93;8.00;;;2.50;99.90;;;;;;4877192;29;20418;-79
2022/03/10 04:36:47;;;;;;;16.87;9.60;;;2.50;99.90;;;;;;4877973;29;20497;-79
2022/03/10 04:39:31;;;;;;;20.40;10.43;;;2.60;99.90;;;;;;4877539;29;20411;-79
2022/03/10 04:42:16;;;;;;;11.20;6.80;;;2.50;99.90;;;;;;4877788;29;20394;-79
2022/03/10 04:45:01;;;;;;;17.37;7.60;;;2.50;99.90;;;;;;4889587;29;21057;-79
2022/03/10 04:47:45;;;;;;;12.20;8.73;;;2.50;99.90;;;;;;4887500;29;20483;-79
2022/03/10 04:50:30;;;;;;;14.00;8.47;;;2.60;99.90;;;;;;4869287;29;20461;-79
2022/03/10 04:53:15;;;;;;;7.50;6.80;;;2.40;99.90;;;;;;4869967;29;20369;-79
2022/03/10 04:55:59;;;;;;;7.70;6.93;;;2.50;99.90;;;;;;4870032;29;20439;-79
2022/03/10 04:58:44;;;;;;;9.97;7.30;;;2.30;99.90;;;;;;4869193;29;20451;-79
2022/03/10 05:01:29;;;;;;;8.80;7.90;;;2.20;99.90;;;;;;4870987;29;20424;-79
2022/03/10 05:04:13;;;;;;;13.27;9.03;;;2.20;99.90;;;;;;4871486;29;20373;-79
2022/03/10 05:06:58;;;;;;;10.63;7.97;;;2.10;99.90;;;;;;4882171;29;20439;-79
2022/03/10 05:09:44;;;;;;;14.43;8.03;;;2.00;99.90;;;;;;4869993;29;20406;-79
2022/03/10 05:12:28;;;;;;;12.70;8.47;;;2.00;99.90;;;;;;4870140;29;20435;-79
2022/03/10 05:15:16;;;;;;;10.57;7.60;;;1.90;99.90;;;;;;4869955;29;20918;-79
2022/03/10 05:18:02;;;;;;;16.53;8.17;;;1.80;99.90;;;;;;4871116;29;20448;-79
2022/03/10 05:20:47;;;;;;;13.17;8.90;;;1.80;99.90;;;;;;4882743;29;20374;-79
2022/03/10 05:23:31;;;;;;;32.27;8.20;;;1.60;99.90;;;;;;4870531;29;20816;-79
2022/03/10 05:26:16;;;;;;;12.37;8.23;;;1.60;99.90;;;;;;4881674;29;20495;-79
2022/03/10 05:29:00;;;;;;;15.00;8.10;;;1.70;99.90;;;;;;4884814;29;20399;-79
2022/03/10 05:31:45;;;;;;;12.37;9.30;;;1.80;99.90;;;;;;4873831;29;20949;-79
2022/03/10 05:34:30;;;;;;;20.20;10.07;;;1.80;99.90;;;;;;4886115;29;20391;-79
2022/03/10 05:37:14;;;;;;;13.77;8.60;;;2.00;99.90;;;;;;4874080;29;20399;-80
2022/03/10 05:39:58;;;;;;;14.00;9.77;;;1.90;99.90;;;;;;4870273;29;20918;-78
2022/03/10 05:42:44;;;;;;;12.50;7.93;;;2.00;99.90;;;;;;4866536;29;20427;-79
2022/03/10 05:45:28;;;;;;;12.10;9.20;;;1.80;99.90;;;;;;4868488;29;20472;-79
2022/03/10 05:48:13;;;;;;;11.07;7.20;;;2.00;99.90;;;;;;4871023;29;20394;-79
2022/03/10 05:50:58;;;;;;;9.60;6.60;;;2.00;99.90;;;;;;4878135;29;20479;-79
2022/03/10 05:53:42;;;;;;;18.33;8.30;;;2.10;99.90;;;;;;4863271;29;20421;-79
2022/03/10 05:56:26;;;;;;;10.23;7.60;;;2.00;99.90;;;;;;4874421;29;20434;-79
2022/03/10 05:59:10;;;;;;;12.83;7.33;;;1.70;99.90;;;;;;4871794;29;20476;-79
2022/03/10 06:01:55;;;;;;;14.50;8.60;;;1.40;99.90;;;;;;4873966;29;20475;-79
2022/03/10 06:04:39;;;;;;;12.93;8.40;;;0.60;99.90;;;;;;4873064;29;20447;-79
2022/03/10 06:07:23;;;;;;;8.83;7.40;;;0.70;99.90;;;;;;4873224;29;20420;-78
2022/03/10 06:10:09;;;;;;;10.53;6.20;;;0.80;99.90;;;;;;4871648;29;20412;-79
2022/03/10 06:12:53;;;;;;;14.10;8.00;;;1.20;99.90;;;;;;4863057;29;20398;-78
2022/03/10 06:15:38;;;;;;;10.30;7.43;;;1.30;99.90;;;;;;4848829;29;20493;-78
2022/03/10 06:18:22;;;;;;;14.30;6.73;;;1.50;99.90;;;;;;4844627;29;20492;-78
2022/03/10 06:21:07;;;;;;;9.30;7.40;;;1.50;99.90;;;;;;4845624;29;20395;-78
2022/03/10 06:23:51;;;;;;;12.20;8.10;;;1.40;99.90;;;;;;4852238;29;20503;-79
2022/03/10 06:26:37;;;;;;;20.60;8.60;;;1.60;99.90;;;;;;4862338;29;20485;-79
2022/03/10 06:29:21;;;;;;;11.60;7.60;;;1.90;99.90;;;;;;4866295;29;20420;-80
2022/03/10 06:32:05;;;;;;;14.00;7.43;;;1.80;99.90;;;;;;4865492;29;20396;-80
2022/03/10 06:34:52;;;;;;;19.10;10.00;;;2.00;99.90;;;;;;4862981;29;20456;-80
2022/03/10 06:37:37;;;;;;;13.33;9.63;;;2.20;99.90;;;;;;4876068;29;20500;-80
2022/03/10 06:40:21;;;;;;;12.10;8.80;;;2.30;99.90;;;;;;4870440;29;20467;-80
2022/03/10 06:43:06;;;;;;;13.50;8.60;;;2.40;99.90;;;;;;4875295;29;20416;-80
2022/03/10 06:45:51;;;;;;;23.03;9.67;;;2.50;99.90;;;;;;4870749;29;20519;-80
2022/03/10 06:48:37;;;;;;;17.07;9.40;;;2.60;99.90;;;;;;4888666;29;20399;-80
2022/03/10 06:51:21;;;;;;;9.87;7.90;;;2.60;99.90;;;;;;4862027;29;20496;-80
2022/03/10 06:54:06;;;;;;;15.33;9.20;;;2.60;99.90;;;;;;4874664;29;20447;-80
2022/03/10 06:56:51;;;;;;;10.63;7.90;;;2.60;99.90;;;;;;4876249;29;20478;-80
2022/03/10 06:59:36;;;;;;;10.00;8.87;;;2.70;99.90;;;;;;4875671;29;21020;-79
2022/03/10 07:02:20;;;;;;;21.50;10.47;;;2.60;99.90;;;;;;4873307;29;20446;-80
2022/03/10 07:05:07;;;;;;;10.33;9.00;;;2.60;99.90;;;;;;4875312;29;20491;-80
2022/03/10 07:07:51;;;;;;;8.17;7.27;;;2.80;99.90;;;;;;4874935;29;20426;-80
2022/03/10 07:10:37;;;;;;;11.03;7.90;;;2.90;99.90;;;;;;4869808;29;20474;-80
2022/03/10 07:13:21;;;;;;;13.40;7.60;;;2.80;99.90;;;;;;4873353;29;20418;-81
2022/03/10 07:16:06;;;;;;;13.07;7.30;;;3.00;99.90;;;;;;4875239;29;20434;-80
2022/03/10 07:18:51;;;;;;;13.37;9.40;;;3.00;99.90;;;;;;4874843;29;20454;-80
2022/03/10 07:21:40;;;;;;;17.57;8.47;;;3.00;99.90;;;;;;4880818;29;20461;-80
2022/03/10 07:24:25;;;;;;;10.97;8.53;;;3.00;99.90;;;;;;4869969;29;20495;-80
2022/03/10 07:27:10;;;;;;;12.77;7.47;;;3.10;99.90;;;;;;4876153;29;20434;-80
2022/03/10 07:29:55;;;;;;;14.87;9.80;;;3.20;99.90;;;;;;4880135;29;20438;-80
2022/03/10 07:32:39;;;;;;;12.90;9.43;;;3.30;99.90;;;;;;4871285;29;20450;-80
2022/03/10 07:35:23;;;;;;;13.07;8.87;;;3.30;99.90;;;;;;4876577;29;21020;-80
2022/03/10 07:38:10;;;;;;;18.00;9.90;;;3.30;99.90;;;;;;4879912;29;20455;-80
2022/03/10 07:40:57;;;;;;;17.43;8.73;;;3.30;99.90;;;;;;4883089;29;20422;-79
2022/03/10 07:43:42;;;;;;;18.47;10.73;;;3.50;99.90;;;;;;4888797;29;20442;-80
2022/03/10 07:46:26;;;;;;;15.40;9.63;;;3.50;99.90;;;;;;4877222;29;20462;-80
2022/03/10 07:49:12;;;;;;;13.00;9.20;;;3.60;99.90;;;;;;4879535;29;20445;-80
2022/03/10 07:51:56;;;;;;;10.83;8.50;;;3.80;99.90;;;;;;4862639;29;20426;-80
2022/03/10 07:54:41;;;;;;;14.60;8.53;;;3.90;99.90;;;;;;4873877;29;20470;-78
2022/03/10 07:57:26;;;;;;;14.63;10.10;;;4.00;99.90;;;;;;4874601;29;20443;-80
2022/03/10 08:00:11;;;;;;;17.30;12.07;;;4.10;99.90;;;;;;4883215;29;20454;-79
2022/03/10 08:02:56;;;;;;;13.43;9.30;;;3.90;99.90;;;;;;4887550;29;20470;-79
2022/03/10 08:05:40;;;;;;;23.87;10.57;;;4.10;99.90;;;;;;4871333;29;20506;-79
2022/03/10 08:08:25;;;;;;;12.50;8.20;;;4.30;99.90;;;;;;4868263;29;20437;-80
2022/03/10 08:11:10;;;;;;;12.17;8.90;;;4.40;99.90;;;;;;4876974;29;20429;-79
2022/03/10 08:13:55;;;;;;;17.60;9.67;;;4.50;99.90;;;;;;4879695;29;20538;-80
2022/03/10 08:16:40;;;;;;;25.90;10.40;;;4.60;99.90;;;;;;4877578;29;20466;-80
2022/03/10 08:19:25;;;;;;;20.50;10.07;;;4.70;99.90;;;;;;4885198;29;20434;-80
2022/03/10 08:22:09;;;;;;;17.20;11.27;;;4.80;99.90;;;;;;4878372;29;20454;-80
2022/03/10 08:24:54;;;;;;;12.60;9.93;;;4.90;99.90;;;;;;4876786;29;20427;-80
2022/03/10 08:27:38;;;;;;;14.93;10.37;;;5.10;99.90;;;;;;4875168;29;20538;-80
2022/03/10 08:30:23;;;;;;;18.93;9.10;;;5.20;99.90;;;;;;4875690;29;20456;-79
2022/03/10 08:33:08;;;;;;;14.60;10.20;;;5.40;99.90;;;;;;4861980;29;20415;-79
2022/03/10 08:35:53;;;;;;;16.20;9.93;;;5.50;99.90;;;;;;4861445;29;20496;-79
2022/03/10 08:38:38;;;;;;;15.10;10.97;;;5.80;99.90;;;;;;4875699;29;20498;-80
2022/03/10 08:41:23;;;;;;;12.70;8.37;;;6.00;99.90;;;;;;4865566;29;20450;-79
2022/03/10 08:44:08;;;;;;;18.17;10.97;;;6.30;99.90;;;;;;4871639;29;20426;-79
2022/03/10 08:46:52;;;;;;;30.37;9.97;;;6.80;99.90;;;;;;4877059;29;20487;-79
2022/03/10 08:49:37;;;;;;;19.27;10.07;;;7.00;99.90;;;;;;4886560;29;20419;-79
2022/03/10 08:52:22;;;;;;;10.90;8.17;;;7.40;99.90;;;;;;4880659;29;20448;-80
2022/03/10 08:55:07;;;;;;;14.20;9.97;;;7.80;99.90;;;;;;4870951;29;20494;-80
2022/03/10 08:57:52;;;;;;;16.17;10.20;;;8.00;99.90;;;;;;4861289;29;20449;-80
2022/03/10 09:00:38;;;;;;;12.57;9.07;;;8.10;99.90;;;;;;4878275;29;20486;-80
2022/03/10 09:03:23;;;;;;;11.63;9.57;;;7.90;99.90;;;;;;4886897;29;20897;-80
2022/03/10 09:06:12;;;;;;;15.87;9.13;;;8.20;99.90;;;;;;4884585;29;20457;-79
2022/03/10 09:08:56;;;;;;;20.80;11.23;;;8.70;99.90;;;;;;4872819;29;20506;-79
2022/03/10 09:11:41;;;;;;;16.83;12.03;;;8.90;99.90;;;;;;4876418;29;20431;-79
2022/03/10 09:14:25;;;;;;;14.30;9.13;;;9.70;99.90;;;;;;4875551;29;20435;-79
2022/03/10 09:17:10;;;;;;;15.53;8.90;;;9.90;99.90;;;;;;4880859;29;20454;-78
2022/03/10 09:19:56;;;;;;;11.77;8.50;;;9.60;99.90;;;;;;4882258;29;20438;-78
2022/03/10 09:22:42;;;;;;;12.67;10.20;;;10.10;99.90;;;;;;4886826;29;20464;-81
2022/03/10 09:25:26;;;;;;;11.97;9.50;;;10.70;99.90;;;;;;4880678;29;20485;-80
2022/03/10 09:28:13;;;;;;;12.73;9.87;;;11.10;99.90;;;;;;4879225;29;20434;-79
2022/03/10 09:30:58;;;;;;;11.33;9.47;;;12.00;99.90;;;;;;4879949;29;20434;-80
2022/03/10 09:33:42;;;;;;;20.07;12.57;;;13.30;99.90;;;;;;4877579;29;20427;-79
2022/03/10 09:36:28;;;;;;;14.60;10.43;;;14.50;99.20;;;;;;4889384;29;20422;-80
2022/03/10 09:39:13;;;;;;;15.50;11.67;;;15.70;90.10;;;;;;4876672;29;20422;-80
2022/03/10 09:42:00;;;;;;;18.60;11.70;;;16.50;84.80;;;;;;4877936;29;20646;-80
2022/03/10 09:44:47;;;;;;;16.60;13.20;;;16.90;80.50;;;;;;4877923;29;21109;-80
2022/03/10 09:47:32;;;;;;;17.73;10.90;;;17.50;76.90;;;;;;4880629;29;20452;-78
2022/03/10 09:50:18;;;;;;;14.00;11.20;;;17.80;72.60;;;;;;4863996;29;20423;-79
2022/03/10 09:53:04;;;;;;;11.73;10.30;;;18.00;70.30;;;;;;4858391;29;20524;-80
2022/03/10 09:55:49;;;;;;;15.87;10.93;;;17.50;71.70;;;;;;4885242;29;20466;-79
2022/03/10 09:58:34;;;;;;;18.80;11.03;;;17.30;71.80;;;;;;4887697;29;20434;-80
2022/03/10 10:01:18;;;;;;;12.33;10.47;;;16.80;70.70;;;;;;4860611;29;20446;-79
2022/03/10 10:04:03;;;;;;;18.20;12.80;;;16.40;70.50;;;;;;4876727;29;20558;-80
2022/03/10 10:07:01;;;;;;;15.77;10.87;;;15.60;69.50;;;;;;4877137;29;20490;-79
2022/03/10 10:09:51;;;;;;;13.43;9.87;;;15.30;72.90;;;;;;4874485;29;20446;-80
2022/03/10 10:12:36;;;;;;;18.60;10.53;;;15.80;69.80;;;;;;4878259;29;20458;-80
2022/03/10 10:15:21;;;;;;;14.90;10.67;;;15.40;67.60;;;;;;4874258;29;20520;-79
2022/03/10 10:18:14;;;;;;;13.77;10.37;;;15.60;69.70;;;;;;4881002;29;20454;-80
2022/03/10 10:21:00;;;;;;;13.30;9.80;;;15.30;67.70;;;;;;4878820;29;20967;-80
2022/03/10 10:23:44;;;;;;;11.43;9.67;;;16.00;67.50;;;;;;4869917;29;20426;-79
2022/03/10 10:26:31;;;;;;;17.27;14.03;;;15.90;66.40;;;;;;4877501;29;20469;-79
2022/03/10 10:29:27;;;;;;;12.10;9.33;;;15.40;68.00;;;;;;4876728;29;20506;-79
2022/03/10 10:32:12;;;;;;;12.03;10.10;;;16.20;67.70;;;;;;4871979;29;20419;-79
2022/03/10 10:34:59;;;;;;;12.73;9.53;;;16.20;64.10;;;;;;4881731;29;20426;-79
2022/03/10 10:37:47;;;;;;;13.63;10.07;;;17.20;67.30;;;;;;4877328;29;20736;-78
2022/03/10 10:40:33;;;;;;;10.70;9.20;;;16.50;69.40;;;;;;4873473;29;20442;-80
2022/03/10 10:43:18;;;;;;;16.23;10.97;;;17.20;68.80;;;;;;4883942;29;20426;-79
2022/03/10 10:46:02;;;;;;;11.07;9.83;;;17.10;62.70;;;;;;4866836;29;20514;-79
2022/03/10 10:48:47;;;;;;;17.87;11.20;;;15.40;61.50;;;;;;4874110;29;20442;-79
2022/03/10 10:51:39;;;;;;;10.60;8.70;;;16.00;63.90;;;;;;4860061;29;20426;-78
2022/03/10 10:54:26;;;;;;;13.17;10.00;;;15.90;61.40;;;;;;4886877;29;20455;-79
2022/03/10 10:57:20;;;;;;;16.57;9.00;;;15.10;65.50;;;;;;4874181;29;20475;-79
2022/03/10 11:00:11;;;;;;;13.50;11.80;;;15.20;63.30;;;;;;4875781;29;20488;-77
2022/03/10 11:02:57;;;;;;;12.37;11.07;;;16.40;64.70;;;;;;4859196;29;20541;-79
2022/03/10 11:05:41;;;;;;;11.93;10.30;;;16.40;61.70;;;;;;4875152;29;20930;-78
2022/03/10 11:08:28;;;;;;;16.73;11.03;;;17.80;64.70;;;;;;4868350;29;20462;-79
2022/03/10 11:11:15;;;;;;;15.07;10.37;;;18.50;63.10;;;;;;4869220;29;20470;-81
2022/03/10 11:13:59;;;;;;;15.17;12.20;;;19.10;59.20;;;;;;4869651;29;20449;-80
2022/03/10 11:16:45;;;;;;;12.23;10.50;;;18.60;59.10;;;;;;4878935;29;20450;-79
2022/03/10 11:19:34;;;;;;;13.53;11.60;;;18.30;57.50;;;;;;4864809;29;20442;-81
2022/03/10 11:22:52;;;;;;;13.17;11.23;;;19.00;61.40;;;;;;4885103;29;20463;-80
2022/03/10 11:25:52;;;;;;;12.60;11.10;;;19.70;56.60;;;;;;4871253;29;20487;-79
2022/03/10 11:28:44;;;;;;;16.60;10.70;;;20.30;53.50;;;;;;4861680;29;20436;-80
2022/03/10 11:31:31;;;;;;;13.50;10.87;;;20.80;54.90;;;;;;4876190;29;20445;-80
2022/03/10 11:34:46;;;;;;;12.50;9.60;;;18.60;53.80;;;;;;4880564;29;20448;-79
2022/03/10 11:37:50;;;;;;;11.03;10.03;;;15.90;55.20;;;;;;4870033;29;20464;-80
2022/03/10 11:40:46;;;;;;;14.00;10.50;;;17.00;58.40;;;;;;4877805;29;20426;-78
2022/03/10 11:43:36;;;;;;;12.10;10.97;;;18.70;56.80;;;;;;4853879;29;20483;-78
2022/03/10 11:46:22;;;;;;;13.80;10.00;;;19.00;55.60;;;;;;4885868;29;20537;-80
2022/03/10 11:49:14;;;;;;;15.53;10.30;;;18.30;55.40;;;;;;4876716;29;20451;-79
2022/03/10 11:52:00;;;;;;;10.77;9.23;;;17.20;54.00;;;;;;4889249;29;20495;-79
2022/03/10 11:55:05;;;;;;;12.23;9.80;;;19.40;54.70;;;;;;4877623;29;20596;-79
2022/03/10 11:58:04;;;;;;;11.00;9.90;;;20.60;52.20;;;;;;4874639;29;20442;-79
2022/03/10 12:00:55;;;;;;;10.73;9.73;;;21.80;50.40;;;;;;4876955;29;20523;-78
2022/03/10 12:03:46;;;;;;;11.23;9.83;;;21.90;49.60;;;;;;4874482;29;20442;-79
2022/03/10 12:06:31;;;;;;;10.77;9.13;;;21.70;50.40;;;;;;4876439;29;20889;-79
2022/03/10 12:09:34;;;;;;;8.97;8.10;;;22.00;49.30;;;;;;4863822;29;20523;-80
2022/03/10 12:12:39;;;;;;;10.20;8.73;;;21.70;46.20;;;;;;4878289;29;20445;-78
2022/03/10 12:15:41;;;;;;;11.10;8.80;;;21.70;47.60;;;;;;4871239;29;20450;-79
2022/03/10 12:18:29;;;;;;;10.70;9.00;;;18.90;47.70;;;;;;4860260;29;20463;-80
2022/03/10 12:21:20;;;;;;;18.30;8.77;;;20.00;48.80;;;;;;4858276;29;20445;-78
2022/03/10 12:24:05;;;;;;;9.30;7.63;;;18.50;47.50;;;;;;4867736;29;20459;-80
2022/03/10 12:26:49;;;;;;;10.47;9.37;;;17.70;49.90;;;;;;4868608;29;20554;-80
2022/03/10 12:29:35;;;;;;;11.73;8.17;;;18.30;50.20;;;;;;4873338;29;20502;-78
2022/03/10 12:32:24;;;;;;;11.47;8.33;;;19.40;50.40;;;;;;4857864;29;20450;-80
2022/03/10 12:35:09;;;;;;;8.93;8.03;;;20.10;48.70;;;;;;4833159;29;20525;-79
2022/03/10 12:37:54;;;;;;;9.47;7.30;;;20.30;47.70;;;;;;4858433;29;20471;-79
2022/03/10 12:40:39;;;;;;;10.13;9.13;;;20.00;46.80;;;;;;4858389;29;20442;-79
2022/03/10 12:43:27;;;;;;;8.43;7.63;;;21.80;45.90;;;;;;4869513;29;20422;-80
2022/03/10 12:46:12;;;;;;;8.37;7.57;;;20.40;44.30;;;;;;4878301;29;20491;-79
2022/03/10 12:49:03;;;;;;;8.77;7.87;;;21.70;45.20;;;;;;4871156;29;20516;-78
2022/03/10 12:51:48;;;;;;;13.90;7.47;;;21.40;43.80;;;;;;4874246;29;20437;-77
2022/03/10 12:54:38;;;;;;;7.60;5.87;;;19.10;42.40;;;;;;4859825;29;20466;-78
2022/03/10 12:57:23;;;;;;;6.80;6.10;;;18.50;43.70;;;;;;4842111;29;20514;-79
2022/03/10 13:00:24;;;;;;;6.90;6.13;;;17.60;42.80;;;;;;4857110;29;20851;-79
2022/03/10 13:03:08;;;;;;;6.57;5.97;;;17.90;41.90;;;;;;4856728;29;20933;-78
2022/03/10 13:05:53;;;;;;;6.47;5.87;;;18.10;42.20;;;;;;4847495;29;20504;-79
2022/03/10 13:08:43;;;;;;;6.20;5.00;;;17.90;42.50;;;;;;4848722;29;20469;-79
2022/03/10 13:11:31;;;;;;;6.63;5.20;;;18.10;42.00;;;;;;4846901;29;20434;-80
2022/03/10 13:14:17;;;;;;;8.10;6.20;;;17.60;41.50;;;;;;4832928;29;20516;-78
2022/03/10 13:17:01;;;;;;;7.57;5.77;;;18.00;42.70;;;;;;4829092;29;20491;-80
2022/03/10 13:19:47;;;;;;;6.17;4.37;;;17.70;42.30;;;;;;4856234;29;20491;-79
2022/03/10 13:22:32;;;;;;;6.60;4.87;;;17.70;39.90;;;;;;4856216;29;20450;-80
2022/03/10 13:25:17;;;;;;;7.70;7.00;;;18.70;40.80;;;;;;4858192;29;20610;-80
2022/03/10 13:28:05;;;;;;;6.43;5.30;;;17.90;40.70;;;;;;4855482;29;20430;-80
2022/03/10 13:30:50;;;;;;;7.50;6.07;;;17.70;41.00;;;;;;4879017;29;20418;-79
2022/03/10 13:33:35;;;;;;;6.97;6.37;;;17.90;40.60;;;;;;4886628;29;20450;-80
2022/03/10 13:36:19;;;;;;;7.33;6.70;;;18.20;42.40;;;;;;4878409;29;20472;-80
2022/03/10 13:39:04;;;;;;;8.07;6.77;;;17.50;41.80;;;;;;4865175;29;20481;-79
2022/03/10 13:41:50;;;;;;;10.20;7.40;;;17.50;42.80;;;;;;4889542;29;20499;-79
2022/03/10 13:44:36;;;;;;;8.00;6.43;;;18.00;44.60;;;;;;4882955;29;20423;-80
2022/03/10 13:47:20;;;;;;;7.63;6.87;;;17.60;43.10;;;;;;4871820;29;20452;-79
2022/03/10 13:50:10;;;;;;;7.80;7.00;;;17.90;44.60;;;;;;4887016;29;20407;-78
2022/03/10 13:52:58;;;;;;;10.10;6.60;;;17.50;44.10;;;;;;4885422;29;20479;-80
2022/03/10 13:55:47;;;;;;;7.40;6.60;;;17.40;44.70;;;;;;4890196;29;20605;-78
2022/03/10 13:58:51;;;;;;;9.00;6.00;;;18.60;43.80;;;;;;4867251;29;20450;-79
2022/03/10 14:01:38;;;;;;;8.53;7.73;;;20.10;43.70;;;;;;4868452;29;20510;-79
2022/03/10 14:04:23;;;;;;;8.47;7.40;;;19.10;42.30;;;;;;4866224;29;20950;-80
2022/03/10 14:07:08;;;;;;;12.40;7.60;;;18.30;43.30;;;;;;4854276;29;20474;-79
2022/03/10 14:09:52;;;;;;;8.27;7.47;;;19.20;43.60;;;;;;4846671;29;20481;-79
2022/03/10 14:12:37;;;;;;;9.73;7.90;;;18.60;44.00;;;;;;4865515;29;20431;-80
2022/03/10 14:15:27;;;;;;;11.90;7.43;;;18.80;44.20;;;;;;4850736;29;21743;-81
2022/03/10 14:18:13;;;;;;;6.07;5.40;;;18.80;42.60;;;;;;4873169;29;20445;-80
2022/03/10 14:21:07;;;;;;;10.10;7.97;;;18.00;42.80;;;;;;4869485;29;20499;-80
2022/03/10 14:24:00;;;;;;;8.67;6.80;;;18.50;42.40;;;;;;4874025;29;20445;-79
2022/03/10 14:26:45;;;;;;;6.20;5.60;;;17.80;42.20;;;;;;4847046;29;20455;-78